createdAt,value
2017-12-19T00:01:47.615Z,2.60
2017-12-19T00:04:15.125Z,2.60
2017-12-19T00:06:43.408Z,2.60
2017-12-19T00:09:10.935Z,2.60
2017-12-19T00:11:39.232Z,2.60
2017-12-19T00:14:07.515Z,2.60
2017-12-19T00:16:35.025Z,2.60
2017-12-19T00:19:02.534Z,2.70
2017-12-19T00:21:30.068Z,2.70
2017-12-19T00:23:57.560Z,2.70
2017-12-19T00:26:25.069Z,2.70
2017-12-19T00:28:52.604Z,2.70
2017-12-19T00:31:20.102Z,2.70
2017-12-19T00:33:48.371Z,2.70
2017-12-19T00:36:15.898Z,2.70
2017-12-19T00:38:43.405Z,2.70
2017-12-19T00:41:11.685Z,2.60
2017-12-19T00:43:39.972Z,2.60
2017-12-19T00:46:07.485Z,2.60
2017-12-19T00:48:34.979Z,2.60
2017-12-19T00:51:03.263Z,2.60
2017-12-19T00:53:30.774Z,2.50
2017-12-19T00:55:58.279Z,2.60
2017-12-19T00:58:25.799Z,2.60
2017-12-19T01:00:53.313Z,2.60
2017-12-19T01:03:20.811Z,2.60
2017-12-19T01:05:48.337Z,2.60
2017-12-19T01:08:15.853Z,2.50
2017-12-19T01:10:44.138Z,2.60
2017-12-19T01:13:12.412Z,2.60
2017-12-19T01:15:40.685Z,2.50
2017-12-19T01:18:08.964Z,2.60
2017-12-19T01:20:37.237Z,2.60
2017-12-19T01:23:05.540Z,2.70
2017-12-19T01:25:33.035Z,2.70
2017-12-19T01:28:00.530Z,2.70
2017-12-19T01:30:28.831Z,2.80
2017-12-19T01:32:56.340Z,2.80
2017-12-19T01:35:23.877Z,2.80
2017-12-19T01:37:51.367Z,2.90
2017-12-19T01:40:19.632Z,2.90
2017-12-19T01:42:47.151Z,2.90
2017-12-19T01:45:14.662Z,2.90
2017-12-19T01:47:42.962Z,2.90
2017-12-19T01:50:10.473Z,2.80
2017-12-19T01:52:37.975Z,2.90
2017-12-19T01:55:05.513Z,2.90
2017-12-19T01:57:33.783Z,2.90
2017-12-19T02:00:02.085Z,2.90
2017-12-19T02:02:29.583Z,3.00
2017-12-19T02:04:57.101Z,2.90
2017-12-19T02:07:24.633Z,2.90
2017-12-19T02:09:52.144Z,2.80
2017-12-19T02:12:19.666Z,2.80
2017-12-19T02:14:47.945Z,2.90
2017-12-19T02:17:16.211Z,2.90
2017-12-19T02:19:44.500Z,2.90
2017-12-19T02:22:11.999Z,2.90
2017-12-19T02:24:39.537Z,2.90
2017-12-19T02:27:07.045Z,2.90
2017-12-19T02:29:34.544Z,2.90
2017-12-19T02:32:02.059Z,3.00
2017-12-19T02:34:29.559Z,2.80
2017-12-19T02:36:57.097Z,2.80
2017-12-19T02:39:25.359Z,2.70
2017-12-19T02:41:52.873Z,2.70
2017-12-19T02:44:20.395Z,2.70
2017-12-19T02:46:48.659Z,2.50
2017-12-19T02:49:16.961Z,2.50
2017-12-19T02:51:44.459Z,2.50
2017-12-19T02:54:11.978Z,2.40
2017-12-19T02:56:39.563Z,2.40
2017-12-19T02:59:07.058Z,2.30
2017-12-19T03:01:34.590Z,2.30
2017-12-19T03:04:02.090Z,2.30
2017-12-19T03:06:30.365Z,2.30
2017-12-19T03:08:58.647Z,2.30
2017-12-19T03:11:26.927Z,2.30
2017-12-19T03:13:54.509Z,2.30
2017-12-19T03:16:22.012Z,2.30
2017-12-19T03:18:49.510Z,2.30
2017-12-19T03:21:17.027Z,2.30
2017-12-19T03:23:44.536Z,2.20
2017-12-19T03:26:12.077Z,2.20
2017-12-19T03:28:39.593Z,2.20
2017-12-19T03:31:07.086Z,2.20
2017-12-19T03:33:35.358Z,2.20
2017-12-19T03:36:03.633Z,2.20
2017-12-19T03:38:31.918Z,2.10
2017-12-19T03:41:00.185Z,2.10
2017-12-19T03:43:28.445Z,2.10
2017-12-19T03:45:55.955Z,2.10
2017-12-19T03:48:23.451Z,2.00
2017-12-19T03:50:50.975Z,2.00
2017-12-19T03:53:18.486Z,2.10
2017-12-19T03:55:46.768Z,2.10
2017-12-19T03:58:15.057Z,2.10
2017-12-19T04:00:42.569Z,2.00
2017-12-19T04:03:10.091Z,2.00
2017-12-19T04:05:37.600Z,2.10
2017-12-19T04:08:05.113Z,2.00
2017-12-19T04:10:32.628Z,2.00
2017-12-19T04:13:00.901Z,2.00
2017-12-19T04:15:28.441Z,2.00
2017-12-19T04:17:55.934Z,2.00
2017-12-19T04:20:24.205Z,2.00
2017-12-19T04:22:52.480Z,1.90
2017-12-19T04:25:20.755Z,1.90
2017-12-19T04:27:49.052Z,1.90
2017-12-19T04:30:16.560Z,1.80
2017-12-19T04:32:44.063Z,1.90
2017-12-19T04:35:11.579Z,2.00
2017-12-19T04:37:39.075Z,1.90
2017-12-19T04:40:07.363Z,1.90
2017-12-19T04:42:34.881Z,1.90
2017-12-19T04:45:02.375Z,2.00
2017-12-19T04:47:29.892Z,1.90
2017-12-19T04:49:57.391Z,2.00
2017-12-19T04:52:24.963Z,2.00
2017-12-19T04:54:52.465Z,2.00
2017-12-19T04:57:19.974Z,2.00
2017-12-19T04:59:47.509Z,2.00
2017-12-19T05:02:15.771Z,2.00
2017-12-19T05:04:44.093Z,2.10
2017-12-19T05:07:11.604Z,2.10
2017-12-19T05:09:39.862Z,2.00
2017-12-19T05:12:07.395Z,2.00
2017-12-19T05:14:34.909Z,2.00
2017-12-19T05:17:03.195Z,2.00
2017-12-19T05:19:30.705Z,2.00
2017-12-19T05:21:58.199Z,2.10
2017-12-19T05:24:26.495Z,2.00
2017-12-19T05:26:53.991Z,2.00
2017-12-19T05:29:21.525Z,2.00
2017-12-19T05:31:49.094Z,2.00
2017-12-19T05:34:17.333Z,2.10
2017-12-19T05:36:45.612Z,2.10
2017-12-19T05:39:13.885Z,2.00
2017-12-19T05:41:42.327Z,2.00
2017-12-19T05:44:09.827Z,2.00
2017-12-19T05:46:37.319Z,2.00
2017-12-19T05:49:04.827Z,2.00
2017-12-19T05:51:33.113Z,2.10
2017-12-19T05:54:01.406Z,2.00
2017-12-19T05:56:28.918Z,2.00
2017-12-19T05:58:56.411Z,2.00
2017-12-19T06:01:23.936Z,2.00
2017-12-19T06:03:51.431Z,2.00
2017-12-19T06:06:18.966Z,2.10
2017-12-19T06:08:47.249Z,2.10
2017-12-19T06:11:15.511Z,2.10
2017-12-19T06:13:43.037Z,2.10
2017-12-19T06:16:10.531Z,2.10
2017-12-19T06:18:38.047Z,2.10
2017-12-19T06:21:05.538Z,2.10
2017-12-19T06:23:33.053Z,2.10
2017-12-19T06:26:00.567Z,2.10
2017-12-19T06:28:28.849Z,2.20
2017-12-19T06:30:57.148Z,2.20
2017-12-19T06:33:24.638Z,2.20
2017-12-19T06:35:52.131Z,2.20
2017-12-19T06:38:19.701Z,2.20
2017-12-19T06:40:47.977Z,2.20
2017-12-19T06:43:16.266Z,2.20
2017-12-19T06:45:43.763Z,2.20
2017-12-19T06:48:11.272Z,2.20
2017-12-19T06:50:39.561Z,2.30
2017-12-19T06:53:07.059Z,2.20
2017-12-19T06:55:34.579Z,2.30
2017-12-19T06:58:02.089Z,2.30
2017-12-19T07:00:29.609Z,2.30
2017-12-19T07:02:57.131Z,2.40
2017-12-19T07:05:25.391Z,2.30
2017-12-19T07:07:52.910Z,2.30
2017-12-19T07:10:20.403Z,2.30
2017-12-19T07:12:47.921Z,2.40
2017-12-19T07:15:15.444Z,2.30
2017-12-19T07:17:43.715Z,2.40
2017-12-19T07:20:12.016Z,2.40
2017-12-19T07:22:39.511Z,2.40
2017-12-19T07:25:07.016Z,2.40
2017-12-19T07:27:35.309Z,2.40
2017-12-19T07:30:02.825Z,2.40
2017-12-19T07:32:30.369Z,2.40
2017-12-19T07:34:57.866Z,2.50
2017-12-19T07:37:26.135Z,2.50
2017-12-19T07:39:54.414Z,2.60
2017-12-19T07:42:22.679Z,2.60
2017-12-19T07:44:50.971Z,2.60
2017-12-19T07:47:18.483Z,2.60
2017-12-19T07:49:45.978Z,2.60
2017-12-19T07:52:14.269Z,2.70
2017-12-19T07:54:41.771Z,2.70
2017-12-19T07:57:09.315Z,2.70
2017-12-19T07:59:36.825Z,2.70
2017-12-19T08:02:05.086Z,2.80
2017-12-19T08:04:32.613Z,2.80
2017-12-19T08:07:00.107Z,2.80
2017-12-19T08:09:27.665Z,2.90
2017-12-19T08:11:55.174Z,2.90
2017-12-19T08:14:22.727Z,3.00
2017-12-19T08:16:51.005Z,3.00
2017-12-19T08:19:18.502Z,3.00
2017-12-19T08:21:47.543Z,3.10
2017-12-19T08:24:15.043Z,3.10
2017-12-19T08:26:42.556Z,3.10
2017-12-19T08:29:10.062Z,3.20
2017-12-19T08:31:37.577Z,3.20
2017-12-19T08:34:05.115Z,3.30
2017-12-19T08:36:33.397Z,3.30
2017-12-19T08:39:01.673Z,3.40
2017-12-19T08:41:29.961Z,3.40
2017-12-19T08:43:57.473Z,3.40
2017-12-19T08:46:24.998Z,3.50
2017-12-19T08:48:53.267Z,3.50
2017-12-19T08:51:20.777Z,3.50
2017-12-19T08:53:48.305Z,3.60
2017-12-19T08:56:15.817Z,3.60
2017-12-19T08:58:44.118Z,3.60
2017-12-19T09:01:11.619Z,3.60
2017-12-19T09:03:39.131Z,3.60
2017-12-19T09:06:06.647Z,3.70
2017-12-19T09:08:34.157Z,3.70
2017-12-19T09:11:01.696Z,3.70
2017-12-19T09:13:29.194Z,3.80
2017-12-19T09:15:56.687Z,3.80
2017-12-19T09:18:24.967Z,3.90
2017-12-19T09:20:53.241Z,3.90
2017-12-19T09:23:21.527Z,3.90
2017-12-19T09:25:49.801Z,3.90
2017-12-19T09:28:18.063Z,3.90
2017-12-19T09:30:45.575Z,3.90
2017-12-19T09:33:13.085Z,4.00
2017-12-19T09:35:41.385Z,4.00
2017-12-19T09:38:08.897Z,4.10
2017-12-19T09:40:36.405Z,4.00
2017-12-19T09:43:03.929Z,4.10
2017-12-19T09:45:31.481Z,4.10
2017-12-19T09:47:58.971Z,4.20
2017-12-19T09:50:26.463Z,4.20
2017-12-19T09:52:53.959Z,4.20
2017-12-19T09:55:21.485Z,4.10
2017-12-19T09:57:48.983Z,4.10
2017-12-19T10:00:17.296Z,4.10
2017-12-19T10:02:45.943Z,4.20
2017-12-19T10:05:14.233Z,4.20
2017-12-19T10:07:42.521Z,4.10
2017-12-19T10:10:10.034Z,4.10
2017-12-19T10:12:39.085Z,4.10
2017-12-19T10:15:06.583Z,4.20
2017-12-19T10:17:34.093Z,4.30
2017-12-19T10:20:01.621Z,4.30
2017-12-19T11:11:35.690Z,4.80
2017-12-19T11:14:03.201Z,4.90
2017-12-19T11:16:31.577Z,4.90
2017-12-19T11:18:59.881Z,4.90
2017-12-19T11:21:27.375Z,4.90
2017-12-19T11:23:54.885Z,4.90
2017-12-19T11:26:23.184Z,4.80
2017-12-19T11:28:50.675Z,4.80
2017-12-19T11:31:18.167Z,4.80
2017-12-19T11:33:45.704Z,4.80
2017-12-19T11:36:13.198Z,4.80
2017-12-19T11:38:41.512Z,4.90
2017-12-19T11:41:09.031Z,4.90
2017-12-19T11:43:37.305Z,4.80
2017-12-19T11:46:05.571Z,4.90
2017-12-19T11:48:33.859Z,4.90
2017-12-19T11:51:02.138Z,5.00
2017-12-19T11:53:30.454Z,4.90
2017-12-19T11:55:57.967Z,4.90
2017-12-19T12:34:28.258Z,5.20
2017-12-19T12:36:55.755Z,5.20
2017-12-19T12:39:24.019Z,5.20
2017-12-19T12:41:51.654Z,5.20
2017-12-19T12:44:19.151Z,5.20
2017-12-19T12:46:46.661Z,5.20
2017-12-19T12:49:14.191Z,5.20
2017-12-19T12:51:42.451Z,5.20
2017-12-19T12:54:11.474Z,5.20
2017-12-19T12:56:38.984Z,5.20
2017-12-19T12:59:06.502Z,5.20
2017-12-19T13:01:34.035Z,5.20
2017-12-19T13:04:02.450Z,5.20
2017-12-19T13:06:30.889Z,5.20
2017-12-19T13:08:58.427Z,5.20
2017-12-19T13:11:25.936Z,5.20
2017-12-19T13:13:53.434Z,5.20
2017-12-19T13:16:20.972Z,5.20
2017-12-19T13:18:48.470Z,5.20
2017-12-19T13:21:15.981Z,5.30
2017-12-19T13:23:43.525Z,5.30
2017-12-19T13:26:11.037Z,5.20
2017-12-19T13:28:38.531Z,5.20
2017-12-19T13:31:06.069Z,5.20
2017-12-19T13:33:34.401Z,5.30
2017-12-19T13:36:01.863Z,5.20
2017-12-19T13:38:29.396Z,5.20
2017-12-19T13:40:56.962Z,5.20
2017-12-19T13:43:24.463Z,5.20
2017-12-19T13:45:52.001Z,5.30
2017-12-19T13:48:19.513Z,5.30
2017-12-19T13:50:47.775Z,5.30
2017-12-19T13:53:16.063Z,5.40
2017-12-19T13:55:44.330Z,5.40
2017-12-19T13:58:12.595Z,5.40
2017-12-19T14:00:40.137Z,5.40
2017-12-19T14:03:07.640Z,5.40
2017-12-19T14:05:35.156Z,5.40
2017-12-19T14:08:02.699Z,5.40
2017-12-19T14:10:30.199Z,5.40
2017-12-19T14:12:58.481Z,5.40
2017-12-19T14:15:26.772Z,5.50
2017-12-19T14:17:54.290Z,5.50
2017-12-19T14:20:21.798Z,5.50
2017-12-19T14:22:49.329Z,5.40
2017-12-19T14:25:17.609Z,5.50
2017-12-19T14:27:45.139Z,5.50
2017-12-19T14:30:12.678Z,5.50
2017-12-19T14:32:40.163Z,5.50
2017-12-19T14:35:07.682Z,5.60
2017-12-19T14:37:35.193Z,5.60
2017-12-19T14:40:03.455Z,5.50
2017-12-19T14:42:30.981Z,5.50
2017-12-19T14:44:58.492Z,5.50
2017-12-19T14:47:26.786Z,5.50
2017-12-19T14:49:54.303Z,5.50
2017-12-19T14:52:21.802Z,5.50
2017-12-19T14:54:49.328Z,5.50
2017-12-19T14:57:17.595Z,5.50
2017-12-19T14:59:45.095Z,5.50
2017-12-19T15:02:12.633Z,5.50
2017-12-19T15:04:40.900Z,5.50
2017-12-19T15:07:09.175Z,5.50
2017-12-19T15:09:37.467Z,5.50
2017-12-19T15:12:05.744Z,5.40
2017-12-19T15:14:33.257Z,5.40
2017-12-19T15:17:00.793Z,5.50
2017-12-19T15:19:28.309Z,5.50
2017-12-19T15:21:56.589Z,5.40
2017-12-19T15:24:24.905Z,5.40
2017-12-19T15:26:52.411Z,5.30
2017-12-19T15:29:20.679Z,5.30
2017-12-19T15:31:48.975Z,5.30
2017-12-19T15:34:17.243Z,5.30
2017-12-19T15:36:45.522Z,5.20
2017-12-19T15:39:13.830Z,5.20
2017-12-19T15:41:41.335Z,5.20
2017-12-19T15:44:08.834Z,5.20
2017-12-19T15:46:36.356Z,5.20
2017-12-19T15:49:03.860Z,5.20
2017-12-19T15:51:31.358Z,5.10
2017-12-19T15:53:58.883Z,5.10
2017-12-19T15:56:26.403Z,5.10
2017-12-19T15:58:54.689Z,5.00
2017-12-19T16:01:22.979Z,5.10
2017-12-19T16:03:50.479Z,5.00
2017-12-19T16:06:17.978Z,5.10
2017-12-19T16:08:45.535Z,5.10
2017-12-19T16:11:13.821Z,5.10
2017-12-19T16:13:41.337Z,5.00
2017-12-19T16:16:08.877Z,5.10
2017-12-19T16:18:36.422Z,5.10
2017-12-19T16:21:03.933Z,5.10
2017-12-19T16:23:32.223Z,5.10
2017-12-19T16:26:00.501Z,5.10
2017-12-19T16:28:28.781Z,5.10
2017-12-19T16:30:56.321Z,5.00
2017-12-19T16:33:24.588Z,4.90
2017-12-19T16:35:52.855Z,5.10
2017-12-19T16:38:20.378Z,5.10
2017-12-19T16:40:47.885Z,5.10
2017-12-19T16:43:15.396Z,5.10
2017-12-19T16:45:42.936Z,5.10
2017-12-19T16:48:10.458Z,5.10
2017-12-19T16:50:37.979Z,5.00
2017-12-19T16:53:05.489Z,5.00
2017-12-19T16:55:33.755Z,5.10
2017-12-19T17:01:08.331Z,5.10
2017-12-19T17:03:36.576Z,5.10
2017-12-19T17:06:04.088Z,5.10
2017-12-19T17:08:31.613Z,5.10
2017-12-19T17:10:59.107Z,5.10
2017-12-19T17:13:26.637Z,5.10
2017-12-19T17:15:54.138Z,5.10
2017-12-19T17:18:21.668Z,5.10
2017-12-19T17:20:49.162Z,5.10
2017-12-19T17:23:16.688Z,5.10
2017-12-19T17:25:44.182Z,5.10
2017-12-19T17:28:12.458Z,5.20
2017-12-19T17:30:40.718Z,5.20
2017-12-19T17:33:08.234Z,5.10
2017-12-19T17:35:35.730Z,5.20
2017-12-19T17:38:03.261Z,5.10
2017-12-19T17:40:31.484Z,5.20
2017-12-19T17:42:59.776Z,5.10
2017-12-19T17:45:27.312Z,5.10
2017-12-19T17:47:54.837Z,5.10
2017-12-19T17:50:22.331Z,5.10
2017-12-19T17:52:49.823Z,5.20
2017-12-19T17:55:17.326Z,5.20
2017-12-19T17:57:44.814Z,5.10
2017-12-19T18:00:13.104Z,5.10
2017-12-19T18:02:40.669Z,5.10
2017-12-19T18:05:08.933Z,5.10
2017-12-19T18:07:37.200Z,5.20
2017-12-19T18:10:05.474Z,5.10
2017-12-19T18:12:33.730Z,5.10
2017-12-19T18:15:01.248Z,5.10
2017-12-19T18:17:28.752Z,5.10
2017-12-19T18:19:56.255Z,5.10
2017-12-19T18:22:23.768Z,5.10
2017-12-19T18:24:51.296Z,5.00
2017-12-19T18:27:18.800Z,5.10
2017-12-19T18:29:47.089Z,5.00
2017-12-19T18:32:14.601Z,4.90
2017-12-19T18:34:42.170Z,4.90
2017-12-19T18:37:09.680Z,4.90
2017-12-19T18:39:37.601Z,4.90
2017-12-19T18:42:05.096Z,4.90
2017-12-19T18:44:32.606Z,4.90
2017-12-19T18:47:00.107Z,4.90
2017-12-19T18:49:27.622Z,4.90
2017-12-19T18:51:55.131Z,4.80
2017-12-19T18:54:22.657Z,4.80
2017-12-19T18:56:50.159Z,4.90
2017-12-19T18:59:17.719Z,4.90
2017-12-19T19:01:45.219Z,4.90
2017-12-19T19:04:13.538Z,4.90
2017-12-19T19:06:41.113Z,4.90
2017-12-19T19:09:08.632Z,4.90
2017-12-19T19:11:36.946Z,4.90
2017-12-19T19:14:04.449Z,4.90
2017-12-19T19:16:31.948Z,4.90
2017-12-19T19:18:59.458Z,4.90
2017-12-19T19:21:26.955Z,4.90
2017-12-19T19:23:55.230Z,4.80
2017-12-19T19:26:23.490Z,4.90
2017-12-19T19:28:51.776Z,4.90
2017-12-19T19:31:20.044Z,4.90
2017-12-19T19:33:48.336Z,4.90
2017-12-19T19:36:16.613Z,4.90
2017-12-19T19:38:44.126Z,4.90
2017-12-19T19:41:11.619Z,4.90
2017-12-19T19:43:39.891Z,4.90
2017-12-19T19:46:08.147Z,4.90
2017-12-19T19:48:35.673Z,4.90
2017-12-19T19:51:03.162Z,4.90
2017-12-19T19:53:30.685Z,4.90
2017-12-19T19:55:58.179Z,4.90
2017-12-19T19:58:25.681Z,4.90
2017-12-19T20:00:53.171Z,4.90
2017-12-19T20:03:20.690Z,4.90
2017-12-19T20:05:48.187Z,4.80
2017-12-19T20:08:15.713Z,4.90
2017-12-19T20:10:43.229Z,4.90
2017-12-19T20:13:10.831Z,4.80
2017-12-19T20:15:38.338Z,4.80
2017-12-19T20:18:05.862Z,4.80
2017-12-19T20:20:33.367Z,4.80
2017-12-19T20:23:00.972Z,4.90
2017-12-19T20:25:28.457Z,4.90
2017-12-19T20:27:55.962Z,4.90
2017-12-19T20:30:24.232Z,4.90
2017-12-19T20:32:52.497Z,4.90
2017-12-19T20:35:20.774Z,4.90
2017-12-19T20:37:48.277Z,4.90
2017-12-19T20:40:16.186Z,5.00
2017-12-19T20:42:43.678Z,5.00
2017-12-19T20:45:11.609Z,4.90
2017-12-19T20:47:39.108Z,4.90
2017-12-19T20:50:06.617Z,4.90
2017-12-19T20:52:34.106Z,4.90
2017-12-19T20:55:02.373Z,4.80
2017-12-19T20:57:29.867Z,4.80
2017-12-19T20:59:57.433Z,4.80
2017-12-19T21:02:24.934Z,4.80
2017-12-19T21:04:52.439Z,4.80
2017-12-19T21:07:19.930Z,4.80
2017-12-19T21:09:47.448Z,4.80
2017-12-19T21:12:14.938Z,4.80
2017-12-19T21:14:42.457Z,4.80
2017-12-19T21:17:10.714Z,4.70
2017-12-19T21:19:38.222Z,4.70
2017-12-19T21:22:05.718Z,4.70
2017-12-19T21:24:33.230Z,4.70
2017-12-19T21:27:00.737Z,4.70
2017-12-19T21:29:29.750Z,4.70
2017-12-19T21:31:58.021Z,4.70
2017-12-19T21:34:26.313Z,4.80
2017-12-19T21:36:54.585Z,4.80
2017-12-19T21:39:22.854Z,4.80
2017-12-19T21:41:51.102Z,4.70
2017-12-19T21:44:18.701Z,4.70
2017-12-19T21:46:46.958Z,4.70
2017-12-19T21:49:15.254Z,4.70
2017-12-19T21:51:42.755Z,4.70
2017-12-19T21:54:10.267Z,4.70
2017-12-19T21:56:38.540Z,4.70
2017-12-19T21:59:06.815Z,4.70
2017-12-19T22:01:35.098Z,4.70
2017-12-19T22:04:02.605Z,4.70
2017-12-19T22:06:30.095Z,4.70
2017-12-19T22:08:58.370Z,4.70
2017-12-19T22:11:26.634Z,4.70
2017-12-19T22:13:54.133Z,4.70
2017-12-19T22:16:21.622Z,4.70
2017-12-19T22:18:49.125Z,4.70
2017-12-19T22:21:17.387Z,4.80
2017-12-19T22:23:46.412Z,4.80
2017-12-19T22:26:13.922Z,4.70
2017-12-19T22:28:41.431Z,4.80
2017-12-19T22:31:08.913Z,4.80
2017-12-19T22:33:36.432Z,4.80
2017-12-19T22:36:04.708Z,4.80
2017-12-19T22:38:32.998Z,4.90
2017-12-19T22:41:00.505Z,4.80
2017-12-19T22:43:28.033Z,4.90
2017-12-19T22:45:55.522Z,4.80
2017-12-19T22:48:23.026Z,4.80
2017-12-19T22:50:50.514Z,4.80
2017-12-19T22:53:18.022Z,4.80
2017-12-19T22:55:46.328Z,4.80
2017-12-19T22:58:13.839Z,4.80
2017-12-19T23:00:42.109Z,4.90
2017-12-19T23:03:09.628Z,4.90
2017-12-19T23:05:37.166Z,4.90
2017-12-19T23:08:04.693Z,4.90
2017-12-19T23:10:32.295Z,4.80
2017-12-19T23:12:59.874Z,4.90
2017-12-19T23:15:27.411Z,4.90
2017-12-19T23:17:54.972Z,4.90
2017-12-19T23:20:22.488Z,4.80
2017-12-19T23:22:49.998Z,4.80
2017-12-19T23:25:17.506Z,4.90
2017-12-19T23:27:45.013Z,4.90
2017-12-19T23:30:12.545Z,4.80
2017-12-19T23:32:40.810Z,4.90
2017-12-19T23:35:09.096Z,4.90
2017-12-19T23:37:37.355Z,4.80
2017-12-19T23:40:04.853Z,4.90
2017-12-19T23:42:32.341Z,4.80
2017-12-19T23:44:59.974Z,4.90
2017-12-19T23:47:27.488Z,4.90
2017-12-19T23:49:55.014Z,4.80
2017-12-19T23:52:22.497Z,4.80
2017-12-19T23:54:50.012Z,4.80
2017-12-19T23:57:17.502Z,4.90
2017-12-19T23:59:45.125Z,4.80
